sensor_id;sensor_type;location;lat;lon;timestamp;P1;durP1;ratioP1;P2;durP2;ratioP2
23517;SDS011;11935;50.878;4.392;2023-02-28T00:00:24;9.10;;;5.13;;
23517;SDS011;11935;50.878;4.392;2023-02-28T00:02:51;6.78;;;4.63;;
23517;SDS011;11935;50.878;4.392;2023-02-28T00:05:18;9.68;;;5.40;;
23517;SDS011;11935;50.878;4.392;2023-02-28T00:07:44;7.65;;;5.45;;
23517;SDS011;11935;50.878;4.392;2023-02-28T00:10:11;9.35;;;5.70;;
23517;SDS011;11935;50.878;4.392;2023-02-28T00:12:38;7.63;;;5.32;;
23517;SDS011;11935;50.878;4.392;2023-02-28T00:15:08;8.98;;;4.93;;
23517;SDS011;11935;50.878;4.392;2023-02-28T00:17:34;7.50;;;5.53;;
23517;SDS011;11935;50.878;4.392;2023-02-28T00:20:00;9.48;;;5.30;;
23517;SDS011;11935;50.878;4.392;2023-02-28T00:22:27;8.10;;;5.65;;
23517;SDS011;11935;50.878;4.392;2023-02-28T00:24:53;9.88;;;6.05;;
23517;SDS011;11935;50.878;4.392;2023-02-28T00:27:19;11.43;;;5.35;;
23517;SDS011;11935;50.878;4.392;2023-02-28T00:29:46;9.43;;;5.40;;
23517;SDS011;11935;50.878;4.392;2023-02-28T00:32:12;7.82;;;5.20;;
23517;SDS011;11935;50.878;4.392;2023-02-28T00:34:38;7.65;;;5.00;;
23517;SDS011;11935;50.878;4.392;2023-02-28T00:37:05;9.73;;;5.15;;
23517;SDS011;11935;50.878;4.392;2023-02-28T00:39:31;10.00;;;5.38;;
23517;SDS011;11935;50.878;4.392;2023-02-28T00:41:57;8.48;;;5.57;;
23517;SDS011;11935;50.878;4.392;2023-02-28T00:44:23;8.00;;;5.50;;
23517;SDS011;11935;50.878;4.392;2023-02-28T00:46:49;8.73;;;5.30;;
23517;SDS011;11935;50.878;4.392;2023-02-28T00:49:16;9.88;;;5.57;;
23517;SDS011;11935;50.878;4.392;2023-02-28T00:51:42;8.88;;;5.20;;
23517;SDS011;11935;50.878;4.392;2023-02-28T00:54:08;7.47;;;5.00;;
23517;SDS011;11935;50.878;4.392;2023-02-28T00:56:35;9.15;;;5.10;;
23517;SDS011;11935;50.878;4.392;2023-02-28T00:59:01;7.72;;;5.38;;
23517;SDS011;11935;50.878;4.392;2023-02-28T01:01:27;9.00;;;5.80;;
23517;SDS011;11935;50.878;4.392;2023-02-28T01:03:53;10.05;;;5.55;;
23517;SDS011;11935;50.878;4.392;2023-02-28T01:06:19;8.88;;;5.60;;
23517;SDS011;11935;50.878;4.392;2023-02-28T01:08:45;9.90;;;5.65;;
23517;SDS011;11935;50.878;4.392;2023-02-28T01:11:12;9.48;;;5.57;;
23517;SDS011;11935;50.878;4.392;2023-02-28T01:13:40;12.02;;;5.53;;
23517;SDS011;11935;50.878;4.392;2023-02-28T01:16:07;9.32;;;5.65;;
23517;SDS011;11935;50.878;4.392;2023-02-28T01:18:33;8.43;;;5.63;;
23517;SDS011;11935;50.878;4.392;2023-02-28T01:21:06;11.30;;;5.72;;
23517;SDS011;11935;50.878;4.392;2023-02-28T01:23:32;8.95;;;5.63;;
23517;SDS011;11935;50.878;4.392;2023-02-28T01:26:08;9.90;;;5.85;;
23517;SDS011;11935;50.878;4.392;2023-02-28T01:28:34;9.65;;;5.90;;
23517;SDS011;11935;50.878;4.392;2023-02-28T01:31:01;10.57;;;5.85;;
23517;SDS011;11935;50.878;4.392;2023-02-28T01:33:27;8.30;;;6.72;;
23517;SDS011;11935;50.878;4.392;2023-02-28T01:36:05;9.18;;;6.50;;
23517;SDS011;11935;50.878;4.392;2023-02-28T01:38:33;7.65;;;5.63;;
23517;SDS011;11935;50.878;4.392;2023-02-28T01:40:59;11.48;;;6.38;;
23517;SDS011;11935;50.878;4.392;2023-02-28T01:43:52;9.68;;;5.82;;
23517;SDS011;11935;50.878;4.392;2023-02-28T01:46:14;9.52;;;6.30;;
23517;SDS011;11935;50.878;4.392;2023-02-28T01:48:42;8.93;;;6.20;;
23517;SDS011;11935;50.878;4.392;2023-02-28T01:51:13;8.30;;;6.07;;
23517;SDS011;11935;50.878;4.392;2023-02-28T01:53:45;12.90;;;5.88;;
23517;SDS011;11935;50.878;4.392;2023-02-28T01:56:12;9.35;;;5.85;;
23517;SDS011;11935;50.878;4.392;2023-02-28T01:58:45;11.85;;;6.85;;
23517;SDS011;11935;50.878;4.392;2023-02-28T02:01:12;7.82;;;6.38;;
23517;SDS011;11935;50.878;4.392;2023-02-28T02:03:47;11.93;;;6.72;;
23517;SDS011;11935;50.878;4.392;2023-02-28T02:06:13;10.20;;;6.97;;
23517;SDS011;11935;50.878;4.392;2023-02-28T02:08:39;11.13;;;6.78;;
23517;SDS011;11935;50.878;4.392;2023-02-28T02:11:05;12.55;;;6.65;;
23517;SDS011;11935;50.878;4.392;2023-02-28T02:43:58;9.82;;;6.85;;
23517;SDS011;11935;50.878;4.392;2023-02-28T02:46:29;12.10;;;8.20;;
23517;SDS011;11935;50.878;4.392;2023-02-28T02:48:56;15.95;;;8.57;;
23517;SDS011;11935;50.878;4.392;2023-02-28T02:51:23;13.57;;;8.30;;
23517;SDS011;11935;50.878;4.392;2023-02-28T02:53:54;12.85;;;7.45;;
23517;SDS011;11935;50.878;4.392;2023-02-28T02:56:23;13.68;;;7.47;;
23517;SDS011;11935;50.878;4.392;2023-02-28T03:01:20;13.15;;;8.05;;
23517;SDS011;11935;50.878;4.392;2023-02-28T03:03:54;13.07;;;8.18;;
23517;SDS011;11935;50.878;4.392;2023-02-28T03:06:20;11.45;;;7.72;;
23517;SDS011;11935;50.878;4.392;2023-02-28T03:08:46;12.18;;;7.82;;
23517;SDS011;11935;50.878;4.392;2023-02-28T03:11:13;15.18;;;8.65;;
23517;SDS011;11935;50.878;4.392;2023-02-28T03:19:07;12.52;;;8.23;;
23517;SDS011;11935;50.878;4.392;2023-02-28T03:21:40;12.80;;;8.63;;
23517;SDS011;11935;50.878;4.392;2023-02-28T03:24:08;13.20;;;8.43;;
23517;SDS011;11935;50.878;4.392;2023-02-28T03:29:03;11.63;;;8.75;;
23517;SDS011;11935;50.878;4.392;2023-02-28T03:31:33;14.68;;;8.98;;
23517;SDS011;11935;50.878;4.392;2023-02-28T03:34:04;12.45;;;8.32;;
23517;SDS011;11935;50.878;4.392;2023-02-28T03:36:53;13.80;;;9.15;;
23517;SDS011;11935;50.878;4.392;2023-02-28T03:41:52;14.63;;;8.98;;
23517;SDS011;11935;50.878;4.392;2023-02-28T03:44:29;16.95;;;9.40;;
23517;SDS011;11935;50.878;4.392;2023-02-28T03:47:06;22.60;;;9.32;;
23517;SDS011;11935;50.878;4.392;2023-02-28T03:50:16;12.45;;;9.25;;
23517;SDS011;11935;50.878;4.392;2023-02-28T03:52:22;12.27;;;8.93;;
23517;SDS011;11935;50.878;4.392;2023-02-28T03:54:52;15.48;;;9.55;;
23517;SDS011;11935;50.878;4.392;2023-02-28T04:00:10;12.82;;;8.35;;
23517;SDS011;11935;50.878;4.392;2023-02-28T04:02:38;15.43;;;9.30;;
23517;SDS011;11935;50.878;4.392;2023-02-28T04:05:05;16.08;;;10.25;;
23517;SDS011;11935;50.878;4.392;2023-02-28T04:07:31;14.75;;;9.32;;
23517;SDS011;11935;50.878;4.392;2023-02-28T04:09:57;11.75;;;8.55;;
23517;SDS011;11935;50.878;4.392;2023-02-28T04:12:24;16.15;;;9.32;;
23517;SDS011;11935;50.878;4.392;2023-02-28T04:14:50;14.05;;;9.65;;
23517;SDS011;11935;50.878;4.392;2023-02-28T04:17:17;14.05;;;9.70;;
23517;SDS011;11935;50.878;4.392;2023-02-28T04:19:43;13.77;;;9.73;;
23517;SDS011;11935;50.878;4.392;2023-02-28T04:22:09;14.20;;;9.50;;
23517;SDS011;11935;50.878;4.392;2023-02-28T04:24:35;15.23;;;9.32;;
23517;SDS011;11935;50.878;4.392;2023-02-28T04:27:02;13.68;;;9.55;;
23517;SDS011;11935;50.878;4.392;2023-02-28T04:29:29;13.75;;;9.23;;
23517;SDS011;11935;50.878;4.392;2023-02-28T04:31:55;13.60;;;9.13;;
23517;SDS011;11935;50.878;4.392;2023-02-28T04:34:28;13.82;;;9.00;;
23517;SDS011;11935;50.878;4.392;2023-02-28T04:36:56;16.40;;;9.60;;
23517;SDS011;11935;50.878;4.392;2023-02-28T04:39:22;12.93;;;9.48;;
23517;SDS011;11935;50.878;4.392;2023-02-28T04:41:49;14.63;;;8.77;;
23517;SDS011;11935;50.878;4.392;2023-02-28T04:44:16;15.55;;;9.60;;
23517;SDS011;11935;50.878;4.392;2023-02-28T04:46:42;16.75;;;9.45;;
23517;SDS011;11935;50.878;4.392;2023-02-28T04:49:11;17.58;;;9.80;;
23517;SDS011;11935;50.878;4.392;2023-02-28T04:51:38;12.45;;;9.18;;
23517;SDS011;11935;50.878;4.392;2023-02-28T04:54:04;14.88;;;9.82;;
23517;SDS011;11935;50.878;4.392;2023-02-28T04:56:30;14.70;;;9.98;;
23517;SDS011;11935;50.878;4.392;2023-02-28T04:58:56;12.38;;;9.13;;
23517;SDS011;11935;50.878;4.392;2023-02-28T05:01:29;15.40;;;9.70;;
23517;SDS011;11935;50.878;4.392;2023-02-28T05:03:57;13.93;;;9.27;;
23517;SDS011;11935;50.878;4.392;2023-02-28T05:06:24;12.88;;;9.23;;
23517;SDS011;11935;50.878;4.392;2023-02-28T05:08:51;13.88;;;9.38;;
23517;SDS011;11935;50.878;4.392;2023-02-28T05:13:44;12.95;;;8.90;;
23517;SDS011;11935;50.878;4.392;2023-02-28T05:16:10;12.88;;;8.73;;
23517;SDS011;11935;50.878;4.392;2023-02-28T05:18:36;13.27;;;9.13;;
23517;SDS011;11935;50.878;4.392;2023-02-28T05:21:02;19.98;;;9.52;;
23517;SDS011;11935;50.878;4.392;2023-02-28T05:23:28;11.95;;;9.27;;
23517;SDS011;11935;50.878;4.392;2023-02-28T05:25:55;14.55;;;8.80;;
23517;SDS011;11935;50.878;4.392;2023-02-28T05:28:21;12.60;;;9.07;;
23517;SDS011;11935;50.878;4.392;2023-02-28T05:30:47;13.27;;;8.73;;
23517;SDS011;11935;50.878;4.392;2023-02-28T05:33:13;12.15;;;8.38;;
23517;SDS011;11935;50.878;4.392;2023-02-28T05:35:40;11.02;;;8.70;;
23517;SDS011;11935;50.878;4.392;2023-02-28T05:38:07;13.18;;;9.15;;
23517;SDS011;11935;50.878;4.392;2023-02-28T05:40:34;15.15;;;9.65;;
23517;SDS011;11935;50.878;4.392;2023-02-28T05:43:00;13.65;;;8.40;;
23517;SDS011;11935;50.878;4.392;2023-02-28T05:45:26;12.00;;;8.60;;
23517;SDS011;11935;50.878;4.392;2023-02-28T05:47:53;14.07;;;8.30;;
23517;SDS011;11935;50.878;4.392;2023-02-28T05:50:19;13.52;;;8.55;;
23517;SDS011;11935;50.878;4.392;2023-02-28T05:52:51;12.15;;;8.73;;
23517;SDS011;11935;50.878;4.392;2023-02-28T05:55:17;12.80;;;8.60;;
23517;SDS011;11935;50.878;4.392;2023-02-28T05:57:43;15.07;;;8.60;;
23517;SDS011;11935;50.878;4.392;2023-02-28T06:00:10;16.58;;;9.15;;
23517;SDS011;11935;50.878;4.392;2023-02-28T06:02:37;14.45;;;8.48;;
23517;SDS011;11935;50.878;4.392;2023-02-28T06:05:04;13.30;;;8.67;;
23517;SDS011;11935;50.878;4.392;2023-02-28T06:07:30;14.73;;;9.20;;
23517;SDS011;11935;50.878;4.392;2023-02-28T06:09:56;14.77;;;9.48;;
23517;SDS011;11935;50.878;4.392;2023-02-28T06:12:22;14.20;;;9.07;;
23517;SDS011;11935;50.878;4.392;2023-02-28T06:14:48;13.45;;;8.80;;
23517;SDS011;11935;50.878;4.392;2023-02-28T06:17:14;19.20;;;9.30;;
23517;SDS011;11935;50.878;4.392;2023-02-28T06:19:40;15.98;;;8.75;;
23517;SDS011;11935;50.878;4.392;2023-02-28T06:22:06;14.65;;;8.93;;
23517;SDS011;11935;50.878;4.392;2023-02-28T06:24:32;12.13;;;8.38;;
23517;SDS011;11935;50.878;4.392;2023-02-28T06:26:58;12.88;;;8.70;;
23517;SDS011;11935;50.878;4.392;2023-02-28T06:29:30;12.57;;;8.20;;
23517;SDS011;11935;50.878;4.392;2023-02-28T06:31:56;11.68;;;8.68;;
23517;SDS011;11935;50.878;4.392;2023-02-28T06:34:22;14.32;;;7.78;;
23517;SDS011;11935;50.878;4.392;2023-02-28T06:36:50;13.32;;;7.78;;
23517;SDS011;11935;50.878;4.392;2023-02-28T06:39:16;14.20;;;8.38;;
23517;SDS011;11935;50.878;4.392;2023-02-28T06:41:42;12.60;;;8.30;;
23517;SDS011;11935;50.878;4.392;2023-02-28T06:44:14;13.70;;;9.15;;
23517;SDS011;11935;50.878;4.392;2023-02-28T06:46:41;13.80;;;8.13;;
23517;SDS011;11935;50.878;4.392;2023-02-28T06:49:07;17.45;;;8.18;;
23517;SDS011;11935;50.878;4.392;2023-02-28T06:51:34;14.90;;;8.55;;
23517;SDS011;11935;50.878;4.392;2023-02-28T06:54:00;14.40;;;8.00;;
23517;SDS011;11935;50.878;4.392;2023-02-28T06:56:26;15.77;;;8.40;;
23517;SDS011;11935;50.878;4.392;2023-02-28T06:58:53;13.48;;;8.15;;
23517;SDS011;11935;50.878;4.392;2023-02-28T07:01:19;14.52;;;8.15;;
23517;SDS011;11935;50.878;4.392;2023-02-28T07:03:45;10.60;;;7.28;;
23517;SDS011;11935;50.878;4.392;2023-02-28T07:06:11;12.20;;;8.10;;
23517;SDS011;11935;50.878;4.392;2023-02-28T07:08:37;14.90;;;7.95;;
23517;SDS011;11935;50.878;4.392;2023-02-28T07:11:05;16.98;;;8.48;;
23517;SDS011;11935;50.878;4.392;2023-02-28T07:13:31;10.35;;;7.72;;
23517;SDS011;11935;50.878;4.392;2023-02-28T07:16:02;13.50;;;7.45;;
23517;SDS011;11935;50.878;4.392;2023-02-28T07:18:28;11.07;;;7.93;;
23517;SDS011;11935;50.878;4.392;2023-02-28T07:20:54;10.88;;;7.22;;
23517;SDS011;11935;50.878;4.392;2023-02-28T07:23:21;11.68;;;7.63;;
23517;SDS011;11935;50.878;4.392;2023-02-28T07:25:47;12.98;;;8.50;;
23517;SDS011;11935;50.878;4.392;2023-02-28T07:28:14;15.15;;;8.82;;
23517;SDS011;11935;50.878;4.392;2023-02-28T07:30:40;16.55;;;8.75;;
23517;SDS011;11935;50.878;4.392;2023-02-28T07:33:07;20.30;;;8.90;;
23517;SDS011;11935;50.878;4.392;2023-02-28T07:35:33;10.90;;;6.80;;
23517;SDS011;11935;50.878;4.392;2023-02-28T07:38:00;16.00;;;7.57;;
23517;SDS011;11935;50.878;4.392;2023-02-28T07:40:26;13.38;;;7.25;;
23517;SDS011;11935;50.878;4.392;2023-02-28T07:42:52;9.40;;;6.18;;
23517;SDS011;11935;50.878;4.392;2023-02-28T07:45:18;10.10;;;7.25;;
23517;SDS011;11935;50.878;4.392;2023-02-28T07:47:45;9.45;;;6.40;;
23517;SDS011;11935;50.878;4.392;2023-02-28T07:50:12;15.18;;;5.63;;
23517;SDS011;11935;50.878;4.392;2023-02-28T07:52:38;15.55;;;6.88;;
23517;SDS011;11935;50.878;4.392;2023-02-28T07:55:05;9.55;;;6.20;;
23517;SDS011;11935;50.878;4.392;2023-02-28T07:57:33;11.38;;;6.53;;
23517;SDS011;11935;50.878;4.392;2023-02-28T07:59:59;10.82;;;6.78;;
23517;SDS011;11935;50.878;4.392;2023-02-28T08:02:25;10.25;;;6.45;;
23517;SDS011;11935;50.878;4.392;2023-02-28T08:04:51;14.05;;;7.07;;
23517;SDS011;11935;50.878;4.392;2023-02-28T08:07:17;11.15;;;6.15;;
23517;SDS011;11935;50.878;4.392;2023-02-28T08:09:44;16.80;;;6.22;;
23517;SDS011;11935;50.878;4.392;2023-02-28T08:12:10;6.45;;;4.47;;
23517;SDS011;11935;50.878;4.392;2023-02-28T08:14:37;11.55;;;4.95;;
23517;SDS011;11935;50.878;4.392;2023-02-28T08:17:04;10.07;;;5.78;;
23517;SDS011;11935;50.878;4.392;2023-02-28T08:19:30;6.03;;;4.30;;
23517;SDS011;11935;50.878;4.392;2023-02-28T08:21:57;6.40;;;3.63;;
23517;SDS011;11935;50.878;4.392;2023-02-28T08:24:23;6.15;;;4.22;;
23517;SDS011;11935;50.878;4.392;2023-02-28T08:26:49;4.03;;;2.75;;
23517;SDS011;11935;50.878;4.392;2023-02-28T08:29:16;5.65;;;3.15;;
23517;SDS011;11935;50.878;4.392;2023-02-28T08:31:42;6.80;;;4.43;;
23517;SDS011;11935;50.878;4.392;2023-02-28T08:34:09;7.53;;;4.47;;
23517;SDS011;11935;50.878;4.392;2023-02-28T08:36:35;4.93;;;3.42;;
23517;SDS011;11935;50.878;4.392;2023-02-28T08:39:02;6.10;;;3.42;;
23517;SDS011;11935;50.878;4.392;2023-02-28T08:41:28;6.53;;;3.55;;
23517;SDS011;11935;50.878;4.392;2023-02-28T08:43:54;3.95;;;2.55;;
23517;SDS011;11935;50.878;4.392;2023-02-28T08:46:21;7.53;;;4.10;;
23517;SDS011;11935;50.878;4.392;2023-02-28T08:48:51;6.35;;;2.80;;
23517;SDS011;11935;50.878;4.392;2023-02-28T08:51:17;4.25;;;3.08;;
23517;SDS011;11935;50.878;4.392;2023-02-28T08:53:47;8.48;;;3.50;;
23517;SDS011;11935;50.878;4.392;2023-02-28T08:56:16;4.53;;;2.58;;
23517;SDS011;11935;50.878;4.392;2023-02-28T08:58:43;6.30;;;3.38;;
23517;SDS011;11935;50.878;4.392;2023-02-28T09:01:10;4.10;;;3.08;;
23517;SDS011;11935;50.878;4.392;2023-02-28T09:03:37;10.17;;;3.57;;
23517;SDS011;11935;50.878;4.392;2023-02-28T09:06:03;4.00;;;2.80;;
23517;SDS011;11935;50.878;4.392;2023-02-28T09:08:30;4.63;;;2.75;;
23517;SDS011;11935;50.878;4.392;2023-02-28T09:10:57;3.33;;;1.50;;
23517;SDS011;11935;50.878;4.392;2023-02-28T09:13:24;7.60;;;3.50;;
23517;SDS011;11935;50.878;4.392;2023-02-28T09:15:50;5.28;;;3.25;;
23517;SDS011;11935;50.878;4.392;2023-02-28T09:18:16;6.45;;;2.78;;
23517;SDS011;11935;50.878;4.392;2023-02-28T09:20:43;6.05;;;3.05;;
23517;SDS011;11935;50.878;4.392;2023-02-28T09:23:10;6.90;;;3.30;;
23517;SDS011;11935;50.878;4.392;2023-02-28T09:25:36;4.47;;;2.85;;
23517;SDS011;11935;50.878;4.392;2023-02-28T09:28:03;5.90;;;2.70;;
23517;SDS011;11935;50.878;4.392;2023-02-28T09:30:30;3.70;;;2.63;;
23517;SDS011;11935;50.878;4.392;2023-02-28T09:32:56;3.13;;;2.33;;
23517;SDS011;11935;50.878;4.392;2023-02-28T09:35:23;4.93;;;2.70;;
23517;SDS011;11935;50.878;4.392;2023-02-28T09:37:50;3.05;;;2.10;;
23517;SDS011;11935;50.878;4.392;2023-02-28T09:40:22;4.63;;;2.40;;
23517;SDS011;11935;50.878;4.392;2023-02-28T09:42:51;4.75;;;2.42;;
23517;SDS011;11935;50.878;4.392;2023-02-28T09:45:31;5.60;;;2.60;;
23517;SDS011;11935;50.878;4.392;2023-02-28T09:47:59;4.03;;;2.20;;
23517;SDS011;11935;50.878;4.392;2023-02-28T09:50:37;2.80;;;2.08;;
23517;SDS011;11935;50.878;4.392;2023-02-28T09:53:15;5.82;;;2.10;;
23517;SDS011;11935;50.878;4.392;2023-02-28T09:55:47;2.50;;;1.98;;
23517;SDS011;11935;50.878;4.392;2023-02-28T09:58:20;1.00;;;0.90;;
23517;SDS011;11935;50.878;4.392;2023-02-28T10:00:46;3.40;;;2.47;;
23517;SDS011;11935;50.878;4.392;2023-02-28T10:08:31;3.58;;;2.20;;
23517;SDS011;11935;50.878;4.392;2023-02-28T10:11:00;2.95;;;2.30;;
23517;SDS011;11935;50.878;4.392;2023-02-28T10:15:58;6.63;;;2.20;;
23517;SDS011;11935;50.878;4.392;2023-02-28T10:18:27;3.67;;;2.17;;
23517;SDS011;11935;50.878;4.392;2023-02-28T10:20:54;2.83;;;1.42;;
23517;SDS011;11935;50.878;4.392;2023-02-28T10:25:53;2.72;;;2.10;;
23517;SDS011;11935;50.878;4.392;2023-02-28T10:28:20;4.03;;;1.70;;
23517;SDS011;11935;50.878;4.392;2023-02-28T10:30:47;3.42;;;1.55;;
23517;SDS011;11935;50.878;4.392;2023-02-28T10:33:24;1.93;;;1.53;;
23517;SDS011;11935;50.878;4.392;2023-02-28T10:35:50;2.00;;;1.50;;
23517;SDS011;11935;50.878;4.392;2023-02-28T10:38:26;2.47;;;1.38;;
23517;SDS011;11935;50.878;4.392;2023-02-28T10:41:03;3.53;;;1.77;;
23517;SDS011;11935;50.878;4.392;2023-02-28T10:43:29;1.83;;;1.48;;
23517;SDS011;11935;50.878;4.392;2023-02-28T10:48:32;1.80;;;1.05;;
23517;SDS011;11935;50.878;4.392;2023-02-28T10:50:59;2.63;;;1.63;;
23517;SDS011;11935;50.878;4.392;2023-02-28T10:53:33;1.90;;;1.40;;
23517;SDS011;11935;50.878;4.392;2023-02-28T10:58:30;2.55;;;1.10;;
23517;SDS011;11935;50.878;4.392;2023-02-28T11:00:56;5.28;;;2.00;;
23517;SDS011;11935;50.878;4.392;2023-02-28T11:03:24;2.00;;;1.42;;
23517;SDS011;11935;50.878;4.392;2023-02-28T11:05:51;3.55;;;1.58;;
23517;SDS011;11935;50.878;4.392;2023-02-28T11:08:17;2.40;;;1.60;;
23517;SDS011;11935;50.878;4.392;2023-02-28T11:10:48;2.30;;;1.50;;
23517;SDS011;11935;50.878;4.392;2023-02-28T11:13:19;8.00;;;2.83;;
23517;SDS011;11935;50.878;4.392;2023-02-28T11:15:55;3.25;;;1.77;;
23517;SDS011;11935;50.878;4.392;2023-02-28T11:21:06;3.70;;;1.73;;
23517;SDS011;11935;50.878;4.392;2023-02-28T11:23:33;2.88;;;2.13;;
23517;SDS011;11935;50.878;4.392;2023-02-28T11:26:01;3.55;;;1.55;;
23517;SDS011;11935;50.878;4.392;2023-02-28T11:33:37;2.42;;;1.80;;
23517;SDS011;11935;50.878;4.392;2023-02-28T11:36:13;2.30;;;1.77;;
23517;SDS011;11935;50.878;4.392;2023-02-28T11:38:39;2.63;;;1.30;;
23517;SDS011;11935;50.878;4.392;2023-02-28T11:49:15;3.47;;;2.08;;
23517;SDS011;11935;50.878;4.392;2023-02-28T11:52:04;5.15;;;2.83;;
23517;SDS011;11935;50.878;4.392;2023-02-28T12:02:29;2.63;;;1.75;;
23517;SDS011;11935;50.878;4.392;2023-02-28T12:27:41;2.35;;;1.80;;
23517;SDS011;11935;50.878;4.392;2023-02-28T12:32:49;2.38;;;1.75;;
23517;SDS011;11935;50.878;4.392;2023-02-28T12:35:19;3.60;;;1.98;;
23517;SDS011;11935;50.878;4.392;2023-02-28T12:37:54;8.07;;;2.50;;
23517;SDS011;11935;50.878;4.392;2023-02-28T12:40:22;3.45;;;2.28;;
23517;SDS011;11935;50.878;4.392;2023-02-28T12:45:22;3.15;;;1.63;;
23517;SDS011;11935;50.878;4.392;2023-02-28T12:47:50;2.88;;;1.60;;
23517;SDS011;11935;50.878;4.392;2023-02-28T12:50:18;6.88;;;2.75;;
23517;SDS011;11935;50.878;4.392;2023-02-28T12:57:42;2.53;;;1.52;;
23517;SDS011;11935;50.878;4.392;2023-02-28T13:00:15;4.47;;;1.60;;
23517;SDS011;11935;50.878;4.392;2023-02-28T13:02:47;5.78;;;2.78;;
23517;SDS011;11935;50.878;4.392;2023-02-28T13:10:21;3.22;;;1.55;;
23517;SDS011;11935;50.878;4.392;2023-02-28T13:12:52;2.90;;;1.73;;
23517;SDS011;11935;50.878;4.392;2023-02-28T13:17:56;4.60;;;3.22;;
23517;SDS011;11935;50.878;4.392;2023-02-28T13:20:24;2.67;;;1.75;;
23517;SDS011;11935;50.878;4.392;2023-02-28T13:22:52;3.03;;;1.87;;
23517;SDS011;11935;50.878;4.392;2023-02-28T13:27:47;2.53;;;1.60;;
23517;SDS011;11935;50.878;4.392;2023-02-28T13:33:35;2.15;;;1.88;;
23517;SDS011;11935;50.878;4.392;2023-02-28T13:44:08;2.55;;;1.77;;
23517;SDS011;11935;50.878;4.392;2023-02-28T13:46:36;6.10;;;1.88;;
23517;SDS011;11935;50.878;4.392;2023-02-28T14:00:27;4.55;;;1.85;;
23517;SDS011;11935;50.878;4.392;2023-02-28T14:05:00;2.30;;;1.80;;
23517;SDS011;11935;50.878;4.392;2023-02-28T14:07:27;2.47;;;1.80;;
23517;SDS011;11935;50.878;4.392;2023-02-28T14:10:05;2.72;;;1.92;;
23517;SDS011;11935;50.878;4.392;2023-02-28T14:17:56;2.28;;;1.70;;
23517;SDS011;11935;50.878;4.392;2023-02-28T14:20:25;4.10;;;1.77;;
23517;SDS011;11935;50.878;4.392;2023-02-28T14:22:54;3.05;;;1.80;;
23517;SDS011;11935;50.878;4.392;2023-02-28T14:36:39;5.10;;;1.83;;
23517;SDS011;11935;50.878;4.392;2023-02-28T14:38:40;4.00;;;1.67;;
23517;SDS011;11935;50.878;4.392;2023-02-28T14:41:12;2.20;;;1.63;;
23517;SDS011;11935;50.878;4.392;2023-02-28T14:43:47;2.20;;;2.00;;
23517;SDS011;11935;50.878;4.392;2023-02-28T14:46:14;2.05;;;1.85;;
23517;SDS011;11935;50.878;4.392;2023-02-28T14:48:40;4.68;;;2.10;;
23517;SDS011;11935;50.878;4.392;2023-02-28T14:51:06;3.25;;;2.28;;
23517;SDS011;11935;50.878;4.392;2023-02-28T14:53:35;2.67;;;2.47;;
23517;SDS011;11935;50.878;4.392;2023-02-28T14:56:01;6.35;;;2.08;;
23517;SDS011;11935;50.878;4.392;2023-02-28T14:58:29;3.00;;;2.17;;
23517;SDS011;11935;50.878;4.392;2023-02-28T15:01:01;3.85;;;2.13;;
23517;SDS011;11935;50.878;4.392;2023-02-28T15:05:54;4.47;;;2.50;;
23517;SDS011;11935;50.878;4.392;2023-02-28T15:08:21;3.03;;;2.17;;
23517;SDS011;11935;50.878;4.392;2023-02-28T15:10:51;3.58;;;1.95;;
23517;SDS011;11935;50.878;4.392;2023-02-28T15:13:18;3.40;;;2.20;;
23517;SDS011;11935;50.878;4.392;2023-02-28T15:19:00;2.35;;;2.00;;
23517;SDS011;11935;50.878;4.392;2023-02-28T15:21:05;3.22;;;2.47;;
23517;SDS011;11935;50.878;4.392;2023-02-28T15:23:32;5.13;;;2.40;;
23517;SDS011;11935;50.878;4.392;2023-02-28T15:25:59;4.97;;;2.20;;
23517;SDS011;11935;50.878;4.392;2023-02-28T15:28:25;2.58;;;2.08;;
23517;SDS011;11935;50.878;4.392;2023-02-28T15:30:56;4.15;;;2.20;;
23517;SDS011;11935;50.878;4.392;2023-02-28T15:33:24;3.00;;;2.38;;
23517;SDS011;11935;50.878;4.392;2023-02-28T15:35:50;6.32;;;3.10;;
23517;SDS011;11935;50.878;4.392;2023-02-28T15:38:24;3.63;;;2.33;;
23517;SDS011;11935;50.878;4.392;2023-02-28T15:40:55;2.92;;;2.10;;
23517;SDS011;11935;50.878;4.392;2023-02-28T15:43:37;4.90;;;2.80;;
23517;SDS011;11935;50.878;4.392;2023-02-28T15:46:08;4.57;;;2.45;;
23517;SDS011;11935;50.878;4.392;2023-02-28T15:48:36;3.38;;;2.33;;
23517;SDS011;11935;50.878;4.392;2023-02-28T15:51:08;2.97;;;2.70;;
23517;SDS011;11935;50.878;4.392;2023-02-28T15:53:40;3.45;;;2.38;;
23517;SDS011;11935;50.878;4.392;2023-02-28T15:56:16;4.25;;;2.40;;
23517;SDS011;11935;50.878;4.392;2023-02-28T15:58:45;5.63;;;3.03;;
23517;SDS011;11935;50.878;4.392;2023-02-28T16:01:24;4.45;;;2.17;;
23517;SDS011;11935;50.878;4.392;2023-02-28T16:03:51;5.30;;;2.70;;
23517;SDS011;11935;50.878;4.392;2023-02-28T16:06:26;4.10;;;2.50;;
23517;SDS011;11935;50.878;4.392;2023-02-28T16:08:54;3.38;;;2.88;;
23517;SDS011;11935;50.878;4.392;2023-02-28T16:11:20;6.57;;;2.55;;
23517;SDS011;11935;50.878;4.392;2023-02-28T16:13:47;2.97;;;2.47;;
23517;SDS011;11935;50.878;4.392;2023-02-28T16:16:21;3.50;;;2.22;;
23517;SDS011;11935;50.878;4.392;2023-02-28T16:18:47;9.60;;;2.72;;
23517;SDS011;11935;50.878;4.392;2023-02-28T16:21:13;4.60;;;2.95;;
23517;SDS011;11935;50.878;4.392;2023-02-28T16:23:39;3.95;;;2.40;;
23517;SDS011;11935;50.878;4.392;2023-02-28T16:26:06;5.43;;;2.78;;
23517;SDS011;11935;50.878;4.392;2023-02-28T16:28:34;3.60;;;1.60;;
23517;SDS011;11935;50.878;4.392;2023-02-28T16:31:01;3.65;;;2.55;;
23517;SDS011;11935;50.878;4.392;2023-02-28T16:33:28;8.75;;;2.20;;
23517;SDS011;11935;50.878;4.392;2023-02-28T16:35:54;5.10;;;2.47;;
23517;SDS011;11935;50.878;4.392;2023-02-28T16:38:20;3.90;;;2.58;;
23517;SDS011;11935;50.878;4.392;2023-02-28T16:40:49;5.63;;;2.50;;
23517;SDS011;11935;50.878;4.392;2023-02-28T16:43:16;3.95;;;1.90;;
23517;SDS011;11935;50.878;4.392;2023-02-28T16:48:14;3.40;;;2.53;;
23517;SDS011;11935;50.878;4.392;2023-02-28T16:50:40;3.72;;;2.45;;
23517;SDS011;11935;50.878;4.392;2023-02-28T16:53:06;5.63;;;2.58;;
23517;SDS011;11935;50.878;4.392;2023-02-28T16:55:32;5.03;;;2.42;;
23517;SDS011;11935;50.878;4.392;2023-02-28T16:58:00;5.18;;;2.50;;
23517;SDS011;11935;50.878;4.392;2023-02-28T17:00:27;4.43;;;2.63;;
23517;SDS011;11935;50.878;4.392;2023-02-28T17:02:53;5.25;;;2.70;;
23517;SDS011;11935;50.878;4.392;2023-02-28T17:05:19;5.60;;;3.10;;
23517;SDS011;11935;50.878;4.392;2023-02-28T17:07:45;4.45;;;2.85;;
23517;SDS011;11935;50.878;4.392;2023-02-28T17:10:16;4.30;;;2.67;;
23517;SDS011;11935;50.878;4.392;2023-02-28T17:12:42;5.25;;;2.78;;
23517;SDS011;11935;50.878;4.392;2023-02-28T17:15:10;3.83;;;2.60;;
23517;SDS011;11935;50.878;4.392;2023-02-28T17:17:36;5.00;;;2.22;;
23517;SDS011;11935;50.878;4.392;2023-02-28T17:20:03;3.60;;;2.28;;
23517;SDS011;11935;50.878;4.392;2023-02-28T17:22:30;2.95;;;2.40;;
23517;SDS011;11935;50.878;4.392;2023-02-28T17:24:56;3.80;;;2.35;;
23517;SDS011;11935;50.878;4.392;2023-02-28T17:27:23;5.80;;;2.33;;
23517;SDS011;11935;50.878;4.392;2023-02-28T17:29:50;3.60;;;2.30;;
23517;SDS011;11935;50.878;4.392;2023-02-28T17:32:16;3.70;;;2.53;;
23517;SDS011;11935;50.878;4.392;2023-02-28T17:34:43;5.38;;;2.60;;
23517;SDS011;11935;50.878;4.392;2023-02-28T17:37:10;5.63;;;2.53;;
23517;SDS011;11935;50.878;4.392;2023-02-28T17:39:36;4.85;;;2.97;;
23517;SDS011;11935;50.878;4.392;2023-02-28T17:42:03;4.88;;;3.08;;
23517;SDS011;11935;50.878;4.392;2023-02-28T17:44:29;5.22;;;3.17;;
23517;SDS011;11935;50.878;4.392;2023-02-28T17:46:55;4.70;;;2.38;;